Time;durP1;ratioP1;P1;durP2;ratioP2;P2;SDS_P1;SDS_P2;PMS_P1;PMS_P2;Temp;Humidity;BMP_temperature;BMP_pressure;BME280_temperature;BME280_humidity;BME280_pressure;Samples;Min_cycle;Max_cycle;Signal;HPM_P1;HPM_P2
2023/07/06 00:01:48;;;;;;;0.32;0.30;;;;;;;;;;5092053;28;20053;-88
2023/07/06 00:04:15;;;;;;;0.05;0.05;;;;;;;;;;5092222;28;20031;-88
2023/07/06 00:06:41;;;;;;;0.08;0.08;;;;;;;;;;5092246;28;20127;-88
2023/07/06 00:09:07;;;;;;;0.10;0.10;;;;;;;;;;5092317;28;20114;-88
2023/07/06 00:11:35;;;;;;;0.10;0.10;;;;;;;;;;5092190;28;20028;-88
2023/07/06 00:14:01;;;;;;;0.00;0.00;;;;;;;;;;5092160;28;20034;-88
2023/07/06 00:16:27;;;;;;;0.00;0.00;;;;;;;;;;5092214;28;20043;-88
2023/07/06 00:18:53;;;;;;;0.00;0.00;;;;;;;;;;5092005;28;20036;-88
2023/07/06 00:21:19;;;;;;;0.05;0.05;;;;;;;;;;5092101;28;20035;-88
2023/07/06 00:23:47;;;;;;;0.00;0.00;;;;;;;;;;5091662;28;20475;-88
2023/07/06 00:26:16;;;;;;;0.22;0.20;;;;;;;;;;5092213;28;20024;-88
2023/07/06 00:28:42;;;;;;;0.10;0.10;;;;;;;;;;5091790;28;20044;-88
2023/07/06 00:31:20;;;;;;;0.10;0.10;;;;;;;;;;5074792;28;20410;-88
2023/07/06 00:33:46;;;;;;;0.28;0.10;;;;;;;;;;5096137;28;20036;-88
2023/07/06 00:36:12;;;;;;;0.00;0.00;;;;;;;;;;5095974;28;20027;-88
2023/07/06 00:38:38;;;;;;;0.00;0.00;;;;;;;;;;5095641;28;20480;-88
2023/07/06 00:41:04;;;;;;;0.10;0.10;;;;;;;;;;5095650;28;20111;-88
2023/07/06 00:43:47;;;;;;;0.35;0.32;;;;;;;;;;5096005;28;20028;-88
2023/07/06 00:46:14;;;;;;;0.00;0.00;;;;;;;;;;5095627;28;20028;-88
2023/07/06 00:48:44;;;;;;;0.10;0.10;;;;;;;;;;5095373;28;20062;-88
2023/07/06 00:51:17;;;;;;;0.00;0.00;;;;;;;;;;5095032;28;20032;-88
2023/07/06 00:53:46;;;;;;;0.00;0.00;;;;;;;;;;5095010;28;20024;-88
2023/07/06 00:56:16;;;;;;;0.00;0.00;;;;;;;;;;5095473;28;20024;-88
2023/07/06 00:58:46;;;;;;;0.00;0.00;;;;;;;;;;5095356;28;20028;-88
2023/07/06 01:01:14;;;;;;;0.08;0.08;;;;;;;;;;5095477;28;20032;-87
2023/07/06 01:03:46;;;;;;;0.00;0.00;;;;;;;;;;5095489;28;20020;-88
2023/07/06 01:06:26;;;;;;;0.00;0.00;;;;;;;;;;5095140;28;20024;-88
2023/07/06 01:08:53;;;;;;;0.00;0.00;;;;;;;;;;5076907;28;20040;-87
2023/07/06 01:11:20;;;;;;;0.03;0.03;;;;;;;;;;5094908;28;20384;-88
2023/07/06 01:13:50;;;;;;;0.00;0.00;;;;;;;;;;5095111;28;20031;-88
2023/07/06 01:16:40;;;;;;;0.00;0.00;;;;;;;;;;5095143;28;20412;-88
2023/07/06 01:19:25;;;;;;;0.00;0.00;;;;;;;;;;5094853;28;20027;-88
2023/07/06 01:21:57;;;;;;;0.00;0.00;;;;;;;;;;5094698;28;20059;-88
2023/07/06 01:24:43;;;;;;;0.00;0.00;;;;;;;;;;5094521;28;20024;-88
2023/07/06 01:27:27;;;;;;;0.00;0.00;;;;;;;;;;5094647;28;20028;-87
2023/07/06 01:30:04;;;;;;;0.00;0.00;;;;;;;;;;5094741;28;20036;-87
2023/07/06 01:32:33;;;;;;;0.10;0.10;;;;;;;;;;5094756;28;20543;-88
2023/07/06 01:35:25;;;;;;;0.00;0.00;;;;;;;;;;5095011;28;20400;-88
2023/07/06 01:37:52;;;;;;;0.05;0.05;;;;;;;;;;4992272;28;20038;-88
2023/07/06 01:40:18;;;;;;;0.10;0.10;;;;;;;;;;4992692;28;20045;-88
2023/07/06 01:42:44;;;;;;;0.00;0.00;;;;;;;;;;4993152;28;20043;-88
2023/07/06 01:45:16;;;;;;;0.05;0.05;;;;;;;;;;4992850;28;20105;-88
2023/07/06 01:47:44;;;;;;;0.15;0.15;;;;;;;;;;4992539;28;20022;-87
2023/07/06 01:50:13;;;;;;;0.00;0.00;;;;;;;;;;4992729;28;20036;-88
2023/07/06 01:52:39;;;;;;;0.00;0.00;;;;;;;;;;4992285;28;20029;-88
2023/07/06 01:55:15;;;;;;;0.10;0.10;;;;;;;;;;4992336;28;20090;-88
2023/07/06 01:57:47;;;;;;;0.00;0.00;;;;;;;;;;4992353;28;20018;-88
2023/07/06 02:00:15;;;;;;;0.10;0.10;;;;;;;;;;4976170;28;20041;-87
2023/07/06 02:02:47;;;;;;;0.00;0.00;;;;;;;;;;4992437;28;20503;-88
2023/07/06 02:05:14;;;;;;;0.08;0.08;;;;;;;;;;4992472;28;20038;-88
2023/07/06 02:07:41;;;;;;;0.20;0.20;;;;;;;;;;4991946;28;20027;-87
2023/07/06 02:10:07;;;;;;;0.00;0.00;;;;;;;;;;4992462;28;20042;-88
2023/07/06 02:12:33;;;;;;;0.10;0.10;;;;;;;;;;4992172;28;20503;-88
2023/07/06 02:14:59;;;;;;;0.10;0.10;;;;;;;;;;5058307;28;20073;-88
2023/07/06 02:17:26;;;;;;;0.00;0.00;;;;;;;;;;5093815;28;20137;-88
2023/07/06 02:19:52;;;;;;;0.00;0.00;;;;;;;;;;5093511;28;20103;-88
2023/07/06 02:22:21;;;;;;;0.20;0.13;;;;;;;;;;5093327;28;20048;-88
2023/07/06 02:24:47;;;;;;;0.00;0.00;;;;;;;;;;5094100;28;20051;-88
2023/07/06 02:27:13;;;;;;;0.00;0.00;;;;;;;;;;5093231;28;20063;-88
2023/07/06 02:29:41;;;;;;;0.03;0.03;;;;;;;;;;5093482;28;20044;-88
2023/07/06 02:32:09;;;;;;;0.15;0.15;;;;;;;;;;5093539;28;20032;-88
2023/07/06 02:34:36;;;;;;;0.00;0.00;;;;;;;;;;5093420;28;20111;-88
2023/07/06 02:37:02;;;;;;;0.00;0.00;;;;;;;;;;5093006;28;20020;-88
2023/07/06 02:39:28;;;;;;;0.00;0.00;;;;;;;;;;5093587;28;20021;-88
2023/07/06 02:41:56;;;;;;;0.00;0.00;;;;;;;;;;5093421;28;20039;-88
2023/07/06 02:44:22;;;;;;;0.32;0.20;;;;;;;;;;5093221;28;20027;-88
2023/07/06 02:46:48;;;;;;;0.00;0.00;;;;;;;;;;5093324;28;20032;-88
2023/07/06 02:49:15;;;;;;;0.00;0.00;;;;;;;;;;5092935;28;20040;-87
2023/07/06 02:51:41;;;;;;;0.00;0.00;;;;;;;;;;5092636;28;20028;-88
2023/07/06 02:54:09;;;;;;;0.05;0.05;;;;;;;;;;5093021;28;20028;-88
2023/07/06 02:56:35;;;;;;;0.10;0.10;;;;;;;;;;5093145;28;20051;-88
2023/07/06 02:59:02;;;;;;;0.25;0.25;;;;;;;;;;5092962;28;20732;-88
2023/07/06 03:01:29;;;;;;;0.10;0.10;;;;;;;;;;5093165;28;20052;-88
2023/07/06 03:03:55;;;;;;;0.10;0.10;;;;;;;;;;5092666;28;20093;-87
2023/07/06 03:06:21;;;;;;;0.17;0.17;;;;;;;;;;5092794;28;20426;-88
2023/07/06 03:08:47;;;;;;;0.35;0.35;;;;;;;;;;5093124;28;20061;-88
2023/07/06 03:11:14;;;;;;;0.10;0.10;;;;;;;;;;5092940;28;20066;-87
2023/07/06 03:13:41;;;;;;;0.20;0.20;;;;;;;;;;5092993;28;20040;-88
2023/07/06 03:16:10;;;;;;;0.30;0.20;;;;;;;;;;5092872;28;20027;-88
2023/07/06 03:18:36;;;;;;;0.00;0.00;;;;;;;;;;5092465;28;20020;-88
2023/07/06 03:21:03;;;;;;;0.00;0.00;;;;;;;;;;5092770;28;20024;-87
2023/07/06 03:23:29;;;;;;;0.00;0.00;;;;;;;;;;5092846;28;20056;-88
2023/07/06 03:25:55;;;;;;;0.00;0.00;;;;;;;;;;5092830;28;20020;-88
2023/07/06 03:28:25;;;;;;;0.00;0.00;;;;;;;;;;5092265;28;20051;-88
2023/07/06 03:30:58;;;;;;;0.05;0.05;;;;;;;;;;5092356;28;20472;-88
2023/07/06 03:33:25;;;;;;;0.10;0.10;;;;;;;;;;5092763;28;20325;-88
2023/07/06 03:35:54;;;;;;;0.10;0.10;;;;;;;;;;5092536;28;20028;-88
2023/07/06 03:38:21;;;;;;;0.10;0.10;;;;;;;;;;5092806;28;20523;-88
2023/07/06 03:40:51;;;;;;;0.10;0.10;;;;;;;;;;5092796;28;20385;-88
2023/07/06 03:43:17;;;;;;;0.15;0.10;;;;;;;;;;5092587;28;20055;-88
2023/07/06 03:45:46;;;;;;;0.00;0.00;;;;;;;;;;5092043;28;20021;-87
2023/07/06 03:48:12;;;;;;;0.10;0.10;;;;;;;;;;5092299;28;20047;-88
2023/07/06 03:50:39;;;;;;;0.30;0.30;;;;;;;;;;5092657;28;20029;-88
2023/07/06 03:53:04;;;;;;;0.20;0.20;;;;;;;;;;5092292;28;20050;-88
2023/07/06 03:55:31;;;;;;;0.10;0.10;;;;;;;;;;5092256;28;20020;-88
2023/07/06 03:58:00;;;;;;;0.05;0.05;;;;;;;;;;5092627;28;20035;-88
2023/07/06 04:00:28;;;;;;;0.08;0.08;;;;;;;;;;5092206;28;20030;-88
2023/07/06 04:02:55;;;;;;;0.28;0.28;;;;;;;;;;5092135;28;20036;-88
2023/07/06 04:05:22;;;;;;;0.10;0.10;;;;;;;;;;5093511;28;20028;-88
2023/07/06 04:07:52;;;;;;;0.10;0.10;;;;;;;;;;5096067;28;20031;-89
2023/07/06 04:10:19;;;;;;;0.00;0.00;;;;;;;;;;5078513;28;20071;-88
2023/07/06 04:12:45;;;;;;;0.10;0.10;;;;;;;;;;5096275;28;20028;-88
2023/07/06 04:15:11;;;;;;;0.10;0.10;;;;;;;;;;5096269;28;20055;-88
2023/07/06 04:17:37;;;;;;;0.10;0.10;;;;;;;;;;5096005;28;20043;-88
2023/07/06 04:20:10;;;;;;;0.10;0.10;;;;;;;;;;5096114;28;20024;-88
2023/07/06 04:22:37;;;;;;;0.10;0.10;;;;;;;;;;5096214;28;20020;-88
2023/07/06 04:25:04;;;;;;;0.10;0.10;;;;;;;;;;5095832;28;20035;-88
2023/07/06 04:27:30;;;;;;;0.00;0.00;;;;;;;;;;5095688;28;20056;-88
2023/07/06 04:29:56;;;;;;;0.00;0.00;;;;;;;;;;5096031;28;20036;-88
2023/07/06 04:32:23;;;;;;;0.00;0.00;;;;;;;;;;5077107;28;20020;-88
2023/07/06 04:34:51;;;;;;;0.30;0.30;;;;;;;;;;5095896;28;20028;-88
2023/07/06 04:37:17;;;;;;;0.10;0.10;;;;;;;;;;5096083;28;20026;-89
2023/07/06 04:39:43;;;;;;;0.10;0.10;;;;;;;;;;5095547;28;20031;-88
2023/07/06 04:42:09;;;;;;;0.08;0.08;;;;;;;;;;5095504;28;20039;-88
2023/07/06 04:44:35;;;;;;;0.00;0.00;;;;;;;;;;5095222;28;20448;-88
2023/07/06 04:47:01;;;;;;;0.10;0.10;;;;;;;;;;5095682;28;20047;-88
2023/07/06 04:49:28;;;;;;;0.10;0.10;;;;;;;;;;5095797;28;20074;-88
2023/07/06 04:51:54;;;;;;;0.20;0.20;;;;;;;;;;5095675;28;20476;-88
2023/07/06 04:54:20;;;;;;;0.03;0.03;;;;;;;;;;5095322;28;20031;-88
2023/07/06 04:56:46;;;;;;;0.75;0.13;;;;;;;;;;5095058;28;20451;-88
2023/07/06 04:59:12;;;;;;;0.10;0.10;;;;;;;;;;5095115;28;20028;-88
2023/07/06 05:01:38;;;;;;;0.03;0.03;;;;;;;;;;5094616;28;20043;-88
2023/07/06 05:04:04;;;;;;;0.10;0.10;;;;;;;;;;5095558;28;20081;-88
2023/07/06 05:06:31;;;;;;;0.10;0.10;;;;;;;;;;5095132;28;20095;-88
2023/07/06 05:08:57;;;;;;;0.10;0.10;;;;;;;;;;5095641;28;20040;-88
2023/07/06 05:11:25;;;;;;;0.00;0.00;;;;;;;;;;5095389;28;20020;-88
2023/07/06 05:13:51;;;;;;;0.00;0.00;;;;;;;;;;5094772;28;20031;-88
2023/07/06 05:16:17;;;;;;;0.50;0.50;;;;;;;;;;5094285;28;20028;-87
2023/07/06 05:18:43;;;;;;;0.20;0.20;;;;;;;;;;5094667;28;20050;-88
2023/07/06 05:21:10;;;;;;;0.25;0.20;;;;;;;;;;5094767;28;20020;-89
2023/07/06 05:23:36;;;;;;;0.05;0.05;;;;;;;;;;5080530;28;20435;-88
2023/07/06 05:26:03;;;;;;;0.00;0.00;;;;;;;;;;5074516;28;20028;-88
2023/07/06 05:28:32;;;;;;;0.10;0.10;;;;;;;;;;5084435;28;20044;-88
2023/07/06 05:31:02;;;;;;;0.30;0.15;;;;;;;;;;5094538;28;20427;-88
2023/07/06 05:33:28;;;;;;;0.35;0.35;;;;;;;;;;5094960;28;20085;-88
2023/07/06 05:35:54;;;;;;;0.00;0.00;;;;;;;;;;5094223;28;20469;-88
2023/07/06 05:38:20;;;;;;;0.00;0.00;;;;;;;;;;5094728;28;20070;-88
2023/07/06 05:40:46;;;;;;;0.30;0.30;;;;;;;;;;5094596;28;20086;-88
2023/07/06 05:43:12;;;;;;;1.75;0.98;;;;;;;;;;5094638;28;20484;-88
2023/07/06 05:45:38;;;;;;;0.17;0.17;;;;;;;;;;5094076;28;20055;-88
2023/07/06 05:48:04;;;;;;;1.80;0.35;;;;;;;;;;5094506;28;20039;-88
2023/07/06 05:50:30;;;;;;;0.45;0.40;;;;;;;;;;5094462;28;20118;-88
2023/07/06 05:52:57;;;;;;;0.35;0.35;;;;;;;;;;5094296;28;20020;-88
2023/07/06 05:55:23;;;;;;;0.30;0.15;;;;;;;;;;5094258;28;20115;-88
2023/07/06 05:57:50;;;;;;;0.10;0.10;;;;;;;;;;5094209;28;20106;-88
2023/07/06 06:00:16;;;;;;;0.30;0.30;;;;;;;;;;5094199;28;20043;-88
2023/07/06 06:02:44;;;;;;;0.43;0.20;;;;;;;;;;5094478;28;20016;-88
2023/07/06 06:05:11;;;;;;;0.43;0.43;;;;;;;;;;5093976;28;20024;-88
2023/07/06 06:07:38;;;;;;;0.15;0.15;;;;;;;;;;5075730;28;20024;-88
2023/07/06 06:10:04;;;;;;;0.10;0.10;;;;;;;;;;5093958;28;20036;-88
2023/07/06 06:12:31;;;;;;;0.50;0.50;;;;;;;;;;5093517;28;20392;-89
2023/07/06 06:14:57;;;;;;;0.10;0.10;;;;;;;;;;5094071;28;20040;-88
2023/07/06 06:17:27;;;;;;;0.00;0.00;;;;;;;;;;5093880;28;20506;-88
2023/07/06 06:19:53;;;;;;;0.10;0.10;;;;;;;;;;5093677;28;20028;-88
2023/07/06 06:22:19;;;;;;;0.30;0.30;;;;;;;;;;5089676;28;20456;-88
2023/07/06 06:24:45;;;;;;;0.35;0.35;;;;;;;;;;5073782;28;20032;-88
2023/07/06 06:27:12;;;;;;;0.32;0.32;;;;;;;;;;5072766;28;20097;-88
2023/07/06 06:29:39;;;;;;;0.30;0.30;;;;;;;;;;5073804;28;20040;-88
2023/07/06 06:32:05;;;;;;;0.35;0.28;;;;;;;;;;5093274;28;20020;-88
2023/07/06 06:34:31;;;;;;;0.30;0.20;;;;;;;;;;5093950;28;20108;-88
2023/07/06 06:36:57;;;;;;;0.40;0.40;;;;;;;;;;5093045;28;20040;-88
2023/07/06 06:39:24;;;;;;;0.10;0.10;;;;;;;;;;5093555;28;20027;-88
2023/07/06 06:41:50;;;;;;;0.20;0.20;;;;;;;;;;5092345;28;20111;-88
2023/07/06 06:44:16;;;;;;;0.30;0.30;;;;;;;;;;5093487;28;20103;-89
2023/07/06 06:46:43;;;;;;;0.40;0.30;;;;;;;;;;5093492;28;20032;-88
2023/07/06 06:49:09;;;;;;;0.10;0.10;;;;;;;;;;5091990;28;20032;-88
2023/07/06 06:51:35;;;;;;;0.10;0.10;;;;;;;;;;5094157;28;20027;-86
2023/07/06 06:54:01;;;;;;;0.70;0.40;;;;;;;;;;5096622;28;20480;-84
2023/07/06 06:56:27;;;;;;;1.38;0.63;;;;;;;;;;5092214;28;20031;-83
2023/07/06 06:58:53;;;;;;;0.08;0.08;;;;;;;;;;5089409;28;20020;-83
2023/07/06 07:01:20;;;;;;;0.10;0.10;;;;;;;;;;5092533;28;20031;-84
2023/07/06 07:03:47;;;;;;;0.10;0.10;;;;;;;;;;5092886;28;20405;-83
2023/07/06 07:06:15;;;;;;;0.03;0.03;;;;;;;;;;5092689;28;20039;-83
2023/07/06 07:08:47;;;;;;;0.95;0.30;;;;;;;;;;5092354;28;20040;-83
2023/07/06 07:11:13;;;;;;;0.40;0.40;;;;;;;;;;5092200;28;20051;-84
2023/07/06 07:13:40;;;;;;;0.35;0.35;;;;;;;;;;5092896;28;20028;-83
2023/07/06 07:16:06;;;;;;;0.20;0.20;;;;;;;;;;5092454;28;20488;-83
2023/07/06 07:18:35;;;;;;;0.10;0.10;;;;;;;;;;5092437;28;20030;-83
2023/07/06 07:21:04;;;;;;;0.10;0.10;;;;;;;;;;5092180;28;20530;-83
2023/07/06 07:23:34;;;;;;;0.00;0.00;;;;;;;;;;5092721;28;20047;-83
2023/07/06 07:26:03;;;;;;;0.38;0.20;;;;;;;;;;5091818;28;20111;-84
2023/07/06 07:28:31;;;;;;;0.25;0.25;;;;;;;;;;5091767;28;20065;-83
2023/07/06 07:30:57;;;;;;;0.35;0.35;;;;;;;;;;5092158;28;20036;-83
2023/07/06 07:33:24;;;;;;;0.13;0.13;;;;;;;;;;5092293;28;20028;-83
2023/07/06 07:35:51;;;;;;;0.20;0.20;;;;;;;;;;5092211;28;20036;-83
2023/07/06 07:38:17;;;;;;;1.20;0.90;;;;;;;;;;5092041;28;20073;-84
2023/07/06 07:41:02;;;;;;;1.73;0.68;;;;;;;;;;5091853;28;20101;-83
2023/07/06 07:43:29;;;;;;;0.38;0.38;;;;;;;;;;5092725;28;20032;-83
2023/07/06 07:46:03;;;;;;;0.10;0.10;;;;;;;;;;5092044;28;20392;-83
2023/07/06 07:48:32;;;;;;;0.57;0.30;;;;;;;;;;5092034;28;20032;-83
2023/07/06 07:50:58;;;;;;;0.22;0.22;;;;;;;;;;5092084;28;20039;-83
2023/07/06 07:53:25;;;;;;;0.52;0.52;;;;;;;;;;5092032;28;20032;-83
2023/07/06 07:55:53;;;;;;;0.20;0.20;;;;;;;;;;5091759;28;20024;-83
2023/07/06 07:58:19;;;;;;;0.15;0.15;;;;;;;;;;5091953;28;20052;-84
2023/07/06 08:00:55;;;;;;;1.20;0.30;;;;;;;;;;5092106;28;20089;-84
2023/07/06 08:03:21;;;;;;;0.30;0.30;;;;;;;;;;5086641;28;20025;-84
2023/07/06 08:05:47;;;;;;;0.20;0.20;;;;;;;;;;5072090;28;20024;-84
2023/07/06 08:08:14;;;;;;;0.13;0.13;;;;;;;;;;5086508;28;20036;-83
2023/07/06 08:10:40;;;;;;;3.40;0.68;;;;;;;;;;5091405;28;20052;-84
2023/07/06 08:13:09;;;;;;;0.55;0.43;;;;;;;;;;5092041;28;20052;-83
2023/07/06 08:15:39;;;;;;;0.20;0.20;;;;;;;;;;5091917;28;20063;-83
2023/07/06 08:18:09;;;;;;;0.55;0.55;;;;;;;;;;5092294;28;20031;-83
2023/07/06 08:20:35;;;;;;;0.30;0.30;;;;;;;;;;5091809;28;20066;-84
2023/07/06 08:23:02;;;;;;;0.10;0.10;;;;;;;;;;5090990;28;20496;-83
2023/07/06 08:25:28;;;;;;;0.35;0.35;;;;;;;;;;5092170;28;20111;-83
2023/07/06 08:27:57;;;;;;;0.47;0.43;;;;;;;;;;5091502;28;20051;-83
2023/07/06 08:30:23;;;;;;;0.10;0.10;;;;;;;;;;5091657;28;20036;-83
2023/07/06 08:32:50;;;;;;;1.23;0.40;;;;;;;;;;5091770;28;20028;-83
2023/07/06 08:35:17;;;;;;;0.20;0.17;;;;;;;;;;5091562;28;20028;-84
2023/07/06 08:37:44;;;;;;;0.70;0.30;;;;;;;;;;5091236;28;20485;-83
2023/07/06 08:40:19;;;;;;;0.98;0.65;;;;;;;;;;5091918;28;20111;-83
2023/07/06 08:42:46;;;;;;;0.30;0.30;;;;;;;;;;5091550;28;20150;-84
2023/07/06 08:45:16;;;;;;;0.55;0.32;;;;;;;;;;5091528;28;20492;-84
2023/07/06 08:47:44;;;;;;;0.52;0.40;;;;;;;;;;5091890;28;20021;-83
2023/07/06 08:50:10;;;;;;;0.52;0.30;;;;;;;;;;5091239;28;20059;-83
2023/07/06 08:52:37;;;;;;;0.25;0.25;;;;;;;;;;5092793;28;20024;-84
2023/07/06 08:55:10;;;;;;;0.10;0.10;;;;;;;;;;5095118;28;20089;-84
2023/07/06 08:57:36;;;;;;;0.63;0.55;;;;;;;;;;5095343;28;20502;-84
2023/07/06 09:00:02;;;;;;;0.10;0.10;;;;;;;;;;5094937;28;20036;-84
2023/07/06 09:02:30;;;;;;;0.10;0.10;;;;;;;;;;5094984;28;20524;-84
2023/07/06 09:04:59;;;;;;;0.30;0.30;;;;;;;;;;5094922;28;20056;-83
2023/07/06 09:07:36;;;;;;;0.30;0.30;;;;;;;;;;5094701;28;20039;-83
2023/07/06 09:10:04;;;;;;;0.20;0.20;;;;;;;;;;5094638;28;20050;-84
2023/07/06 09:12:32;;;;;;;0.65;0.15;;;;;;;;;;5094747;28;20092;-84
2023/07/06 09:14:59;;;;;;;0.10;0.10;;;;;;;;;;5095150;28;20063;-84
2023/07/06 09:17:27;;;;;;;0.55;0.55;;;;;;;;;;5094791;28;20051;-83
2023/07/06 09:19:53;;;;;;;0.10;0.10;;;;;;;;;;5094443;28;20024;-84
2023/07/06 09:22:22;;;;;;;0.20;0.20;;;;;;;;;;5094542;28;20052;-84
2023/07/06 09:24:49;;;;;;;0.47;0.47;;;;;;;;;;5094576;28;20389;-84
2023/07/06 09:27:28;;;;;;;0.28;0.28;;;;;;;;;;5094332;28;20082;-84
2023/07/06 09:30:05;;;;;;;0.43;0.25;;;;;;;;;;5094306;28;20127;-84
2023/07/06 09:32:34;;;;;;;0.35;0.35;;;;;;;;;;5094372;28;20016;-83
2023/07/06 09:35:03;;;;;;;0.65;0.50;;;;;;;;;;5094201;28;20028;-84
2023/07/06 09:37:29;;;;;;;0.20;0.20;;;;;;;;;;5094071;28;20532;-84
2023/07/06 09:40:03;;;;;;;0.55;0.32;;;;;;;;;;5094115;28;20111;-84
2023/07/06 09:42:31;;;;;;;0.08;0.08;;;;;;;;;;5094145;28;20590;-84
2023/07/06 09:44:57;;;;;;;0.40;0.40;;;;;;;;;;5094088;28;20088;-83
2023/07/06 09:47:23;;;;;;;0.10;0.10;;;;;;;;;;5094119;28;20480;-84
2023/07/06 09:49:58;;;;;;;0.15;0.15;;;;;;;;;;5095005;28;20060;-82
2023/07/06 09:52:25;;;;;;;0.10;0.10;;;;;;;;;;5094023;28;20024;-84
2023/07/06 09:54:57;;;;;;;0.00;0.00;;;;;;;;;;5094473;28;20081;-84
2023/07/06 09:57:25;;;;;;;0.28;0.17;;;;;;;;;;5093691;28;20128;-84
2023/07/06 09:59:52;;;;;;;0.20;0.20;;;;;;;;;;5094030;28;20447;-84
2023/07/06 10:02:24;;;;;;;0.00;0.00;;;;;;;;;;5093806;28;20024;-84
2023/07/06 10:04:56;;;;;;;0.13;0.13;;;;;;;;;;5075227;28;20082;-84
2023/07/06 10:07:27;;;;;;;0.20;0.20;;;;;;;;;;5093858;28;20495;-84
2023/07/06 10:09:53;;;;;;;0.40;0.40;;;;;;;;;;5093425;28;20036;-84
2023/07/06 10:12:38;;;;;;;0.95;0.30;;;;;;;;;;5093494;28;20024;-84
2023/07/06 10:15:08;;;;;;;0.20;0.20;;;;;;;;;;5093584;28;20023;-83
2023/07/06 10:17:37;;;;;;;0.13;0.13;;;;;;;;;;5093333;28;20447;-84
2023/07/06 10:20:18;;;;;;;0.10;0.10;;;;;;;;;;5092955;28;20039;-84
2023/07/06 10:22:50;;;;;;;0.10;0.10;;;;;;;;;;5093267;28;20418;-84
2023/07/06 10:25:19;;;;;;;0.08;0.08;;;;;;;;;;5093331;28;20173;-84
2023/07/06 10:27:49;;;;;;;0.30;0.30;;;;;;;;;;5093240;28;20434;-84
2023/07/06 10:30:31;;;;;;;0.10;0.10;;;;;;;;;;5093546;28;20040;-84
2023/07/06 10:32:58;;;;;;;0.55;0.25;;;;;;;;;;5093442;28;20016;-83
2023/07/06 10:35:25;;;;;;;0.17;0.15;;;;;;;;;;5092883;28;20024;-84
2023/07/06 10:37:51;;;;;;;0.00;0.00;;;;;;;;;;5093093;28;20111;-84
2023/07/06 10:40:19;;;;;;;0.10;0.10;;;;;;;;;;5092944;28;20066;-84
2023/07/06 10:42:52;;;;;;;0.52;0.32;;;;;;;;;;5093144;28;20365;-84
2023/07/06 10:45:43;;;;;;;0.03;0.03;;;;;;;;;;5093272;28;20071;-84
2023/07/06 10:48:15;;;;;;;0.45;0.45;;;;;;;;;;5081493;28;20036;-84
2023/07/06 10:50:51;;;;;;;0.13;0.13;;;;;;;;;;5092678;28;20422;-84
2023/07/06 10:53:17;;;;;;;0.30;0.30;;;;;;;;;;5093398;28;20020;-84
2023/07/06 10:55:54;;;;;;;0.20;0.20;;;;;;;;;;5092390;28;20032;-84
2023/07/06 10:58:21;;;;;;;0.10;0.10;;;;;;;;;;5092900;28;20024;-84
2023/07/06 11:00:47;;;;;;;0.30;0.30;;;;;;;;;;5092304;28;20019;-84
2023/07/06 11:03:16;;;;;;;0.10;0.10;;;;;;;;;;5092321;28;20023;-84
2023/07/06 11:05:52;;;;;;;0.20;0.20;;;;;;;;;;5092684;28;20395;-84
2023/07/06 11:08:38;;;;;;;0.15;0.15;;;;;;;;;;5092977;28;20107;-84
2023/07/06 11:11:04;;;;;;;0.45;0.22;;;;;;;;;;5074097;28;20062;-84
2023/07/06 11:13:32;;;;;;;0.10;0.10;;;;;;;;;;5092616;28;20036;-84
2023/07/06 11:16:04;;;;;;;0.10;0.10;;;;;;;;;;5091840;28;20097;-84
2023/07/06 11:18:36;;;;;;;1.08;0.43;;;;;;;;;;5092074;28;20038;-84
2023/07/06 11:21:08;;;;;;;0.28;0.28;;;;;;;;;;5092408;28;20054;-84
2023/07/06 11:23:35;;;;;;;0.60;0.47;;;;;;;;;;5092768;28;20024;-84
2023/07/06 11:26:03;;;;;;;0.10;0.10;;;;;;;;;;5092444;28;20024;-84
2023/07/06 11:28:29;;;;;;;0.10;0.10;;;;;;;;;;5092217;28;20047;-84
2023/07/06 11:30:59;;;;;;;0.10;0.10;;;;;;;;;;5092258;28;20028;-84
2023/07/06 11:33:27;;;;;;;0.10;0.10;;;;;;;;;;5091876;28;20519;-84
2023/07/06 11:36:16;;;;;;;0.03;0.03;;;;;;;;;;5092661;28;20024;-84
2023/07/06 11:38:42;;;;;;;0.10;0.10;;;;;;;;;;5092325;28;20020;-84
2023/07/06 11:41:09;;;;;;;0.10;0.10;;;;;;;;;;5092124;28;20364;-84
2023/07/06 11:43:40;;;;;;;0.00;0.00;;;;;;;;;;5092430;28;20048;-84
2023/07/06 11:46:25;;;;;;;0.03;0.03;;;;;;;;;;5091818;28;20055;-84
2023/07/06 11:48:51;;;;;;;0.00;0.00;;;;;;;;;;5092143;28;20377;-84
2023/07/06 11:51:19;;;;;;;0.10;0.10;;;;;;;;;;5092087;28;20027;-84
2023/07/06 11:59:04;;;;;;;0.22;0.22;;;;;;;;;;5091782;28;20089;-84
2023/07/06 12:01:42;;;;;;;0.57;0.57;;;;;;;;;;5091712;28;20028;-84
2023/07/06 12:04:18;;;;;;;0.00;0.00;;;;;;;;;;5092057;28;20548;-84
2023/07/06 12:06:45;;;;;;;0.00;0.00;;;;;;;;;;5092088;28;20028;-84
2023/07/06 12:09:16;;;;;;;0.00;0.00;;;;;;;;;;5092227;28;20035;-84
2023/07/06 12:11:42;;;;;;;0.10;0.10;;;;;;;;;;5091959;28;20036;-84
2023/07/06 12:14:20;;;;;;;0.45;0.10;;;;;;;;;;5091802;28;20020;-84
2023/07/06 12:16:46;;;;;;;0.08;0.08;;;;;;;;;;5091798;28;20075;-84
2023/07/06 12:19:13;;;;;;;0.20;0.20;;;;;;;;;;5091627;28;20028;-84
2023/07/06 12:21:43;;;;;;;0.20;0.20;;;;;;;;;;5092176;28;20553;-85
2023/07/06 12:24:14;;;;;;;0.10;0.10;;;;;;;;;;5091747;28;20107;-84
2023/07/06 12:26:47;;;;;;;0.10;0.10;;;;;;;;;;5092104;28;20491;-84
2023/07/06 12:29:17;;;;;;;0.10;0.10;;;;;;;;;;5095645;28;20084;-84
2023/07/06 12:31:47;;;;;;;1.08;0.45;;;;;;;;;;5095157;28;20020;-84
2023/07/06 12:34:17;;;;;;;0.63;0.47;;;;;;;;;;5095619;28;20408;-84
2023/07/06 12:36:44;;;;;;;0.30;0.30;;;;;;;;;;5095531;28;20020;-84
2023/07/06 12:39:13;;;;;;;0.10;0.10;;;;;;;;;;5095468;28;20028;-84
2023/07/06 12:41:39;;;;;;;2.63;0.38;;;;;;;;;;5095748;28;20016;-84
2023/07/06 12:44:07;;;;;;;0.10;0.10;;;;;;;;;;5095034;28;20498;-84
2023/07/06 12:46:34;;;;;;;0.00;0.00;;;;;;;;;;5095287;28;20020;-84
2023/07/06 12:49:02;;;;;;;0.00;0.00;;;;;;;;;;5095596;28;20484;-84
2023/07/06 12:51:29;;;;;;;0.00;0.00;;;;;;;;;;5095232;28;20032;-85
2023/07/06 12:53:57;;;;;;;0.00;0.00;;;;;;;;;;5095083;28;20488;-84
2023/07/06 12:56:24;;;;;;;0.00;0.00;;;;;;;;;;5095004;28;20536;-84
2023/07/06 12:59:01;;;;;;;0.20;0.20;;;;;;;;;;5094638;28;20036;-84
2023/07/06 13:01:34;;;;;;;0.00;0.00;;;;;;;;;;5095040;28;20028;-84
2023/07/06 13:04:11;;;;;;;0.10;0.10;;;;;;;;;;5094952;28;20016;-85
2023/07/06 13:06:43;;;;;;;0.00;0.00;;;;;;;;;;5094959;28;20479;-84
2023/07/06 13:09:12;;;;;;;0.10;0.10;;;;;;;;;;5094708;28;20093;-85
2023/07/06 13:11:38;;;;;;;0.43;0.35;;;;;;;;;;5094631;28;20049;-85
2023/07/06 13:14:06;;;;;;;0.00;0.00;;;;;;;;;;5094856;28;20062;-85
2023/07/06 13:16:40;;;;;;;0.10;0.10;;;;;;;;;;5094688;28;20031;-84
2023/07/06 13:19:06;;;;;;;0.10;0.10;;;;;;;;;;5094879;28;20028;-84
2023/07/06 13:21:34;;;;;;;0.00;0.00;;;;;;;;;;5094620;28;20016;-84
2023/07/06 13:24:00;;;;;;;0.10;0.10;;;;;;;;;;5094494;28;20441;-85
2023/07/06 13:26:26;;;;;;;0.15;0.15;;;;;;;;;;5094918;28;20095;-84
2023/07/06 13:28:53;;;;;;;0.10;0.10;;;;;;;;;;5094040;28;20048;-84
2023/07/06 13:31:19;;;;;;;0.05;0.05;;;;;;;;;;5094483;28;20028;-85
2023/07/06 13:33:46;;;;;;;0.00;0.00;;;;;;;;;;5094879;28;20032;-84
2023/07/06 13:36:16;;;;;;;0.00;0.00;;;;;;;;;;5094404;28;20020;-84
2023/07/06 13:38:43;;;;;;;0.28;0.28;;;;;;;;;;5093915;28;20035;-85
2023/07/06 13:41:12;;;;;;;0.10;0.10;;;;;;;;;;5094159;28;20032;-84
2023/07/06 13:43:38;;;;;;;0.10;0.10;;;;;;;;;;5094325;28;20027;-85
2023/07/06 13:46:04;;;;;;;0.10;0.10;;;;;;;;;;5094209;28;20169;-84
2023/07/06 13:48:31;;;;;;;0.00;0.00;;;;;;;;;;5094092;28;20032;-84
2023/07/06 13:50:57;;;;;;;0.00;0.00;;;;;;;;;;5094367;28;20038;-84
2023/07/06 13:53:24;;;;;;;0.10;0.10;;;;;;;;;;5094233;28;20484;-85
2023/07/06 13:55:52;;;;;;;0.17;0.17;;;;;;;;;;5093904;28;20036;-84
2023/07/06 13:58:19;;;;;;;0.10;0.10;;;;;;;;;;5093412;28;20488;-85
2023/07/06 14:00:48;;;;;;;0.15;0.15;;;;;;;;;;5093848;28;20043;-85
2023/07/06 14:03:15;;;;;;;0.10;0.10;;;;;;;;;;5094279;28;20089;-84
2023/07/06 14:05:42;;;;;;;0.20;0.20;;;;;;;;;;5093761;28;20038;-85
2023/07/06 14:08:09;;;;;;;0.00;0.00;;;;;;;;;;5093794;28;20048;-85
2023/07/06 14:10:35;;;;;;;0.28;0.25;;;;;;;;;;5093489;28;20043;-84
2023/07/06 14:13:01;;;;;;;0.00;0.00;;;;;;;;;;5093783;28;20477;-85
2023/07/06 14:15:27;;;;;;;0.08;0.08;;;;;;;;;;5093492;28;20028;-84
2023/07/06 14:17:54;;;;;;;0.00;0.00;;;;;;;;;;5093622;28;20061;-84
2023/07/06 14:20:22;;;;;;;0.00;0.00;;;;;;;;;;5093460;28;20028;-84
2023/07/06 14:22:48;;;;;;;0.90;0.20;;;;;;;;;;5093171;28;20507;-85
2023/07/06 14:25:19;;;;;;;0.03;0.03;;;;;;;;;;5093367;28;20044;-84
2023/07/06 14:27:45;;;;;;;0.52;0.52;;;;;;;;;;5093496;28;20051;-84
2023/07/06 14:30:17;;;;;;;0.22;0.22;;;;;;;;;;5093434;28;20040;-85
2023/07/06 14:32:43;;;;;;;0.43;0.32;;;;;;;;;;5093355;28;20043;-84
2023/07/06 14:35:10;;;;;;;0.45;0.43;;;;;;;;;;5093156;28;20032;-85
2023/07/06 14:37:37;;;;;;;0.00;0.00;;;;;;;;;;5093560;28;20023;-84
2023/07/06 14:40:03;;;;;;;0.10;0.10;;;;;;;;;;5092734;28;20049;-84
2023/07/06 14:42:29;;;;;;;0.88;0.52;;;;;;;;;;5093005;28;20464;-84
2023/07/06 14:44:55;;;;;;;0.38;0.30;;;;;;;;;;5093136;28;20115;-84
2023/07/06 14:47:21;;;;;;;0.10;0.10;;;;;;;;;;5092994;28;20027;-84
2023/07/06 14:49:47;;;;;;;1.13;0.52;;;;;;;;;;5092077;28;20036;-85
2023/07/06 14:52:14;;;;;;;0.52;0.30;;;;;;;;;;5093266;28;20073;-85
2023/07/06 14:54:41;;;;;;;0.25;0.25;;;;;;;;;;5092511;28;20051;-84
2023/07/06 14:57:07;;;;;;;0.43;0.20;;;;;;;;;;5092824;28;20028;-85